Airfield :
LOGIN :

Register | Disclaimer

   EN    FR    IT 

 










Legend :    VFR   Marginal VFR   IFR   Intensive IFR   Very Intensive IFR
Visi :
Ceiling :
>= 8 km
>= 3000ft
5 to 8 km
1000 to 3000 ft
1500m to 5 km
500 to 1000 ft
800 to 1500m
200 to 500 ft
< 800m
< 200 ft
Symbols :   Thunderstorms  Fog  Heavy snow  Heavy precipitations  Wind > 20 kt
SIGMETs :     Misc.  Thunderstorms  Icing  Turbulence  Mountain Waves  Volcanic Ashes






- Airport Elevation : 656 ft
- IATA code : CMN


GMMN - Casablanca Mohammed V

CURRENT METAR :
  • 260700Z 18015KT 9999 BKN020 11/11 Q1008 NOSIG

EXPIRED METARs :
  • 260630Z 18013KT 9999 BKN020 11/11 Q1008 NOSIG
  • 260600Z 21010KT 9999 BKN020 11/11 Q1009 NOSIG
  • 260530Z 21009KT 9999 BKN026 11/11 Q1009 NOSIG
  • 260500Z 20012KT 9999 BKN026 11/11 Q1009 NOSIG
  • 260430Z AUTO 20013KT 9999 BKN026 11/11 Q1009 NOSIG

TAF TAF GMMN
Valid from the 26 at 06:00 until the 27 at 12:00 UTC


260500Z 2606/2712 18012KT 9999 BKN026
TEMPO 2608/2615 3000 SHRA SCT002 BKN016 FEW026CB
BECMG 2616/2618 9999 BKN016



MET'MAP, your aeronautical weather chart ! - Copyright ORBIFLY December 2007 - Disclaimer

ORBIFLY MET'MAP TEAM :

Programming & Development : Alexandra Zaïnal
Concept & original design : Baudouin d'Aumeries
Assistance for programming : Marc-Olivier Méhu
Technical & hardware support : Manuel Goepfert

Contact : metmap@orbifly.com




SOURCES & CREDITS :

   NOAA